createdAt,value
2017-05-08T00:00:24.767Z,976.13
2017-05-08T00:01:27.133Z,976.15
2017-05-08T00:02:29.495Z,976.17
2017-05-08T00:03:32.059Z,976.15
2017-05-08T00:04:35.016Z,976.26
2017-05-08T00:05:37.375Z,976.26
2017-05-08T00:06:39.735Z,976.30
2017-05-08T00:07:42.095Z,976.30
2017-05-08T00:08:44.450Z,976.31
2017-05-08T00:09:47.418Z,976.35
2017-05-08T00:10:49.768Z,976.36
2017-05-08T00:11:52.131Z,976.41
2017-05-08T00:12:54.493Z,976.36
2017-05-08T00:13:56.840Z,976.40
2017-05-08T00:14:59.748Z,976.40
2017-05-08T00:16:02.104Z,976.41
2017-05-08T00:17:04.462Z,976.42
2017-05-08T00:18:06.822Z,976.41
2017-05-08T00:19:09.179Z,976.47
2017-05-08T00:20:12.081Z,976.43
2017-05-08T00:21:14.440Z,976.45
2017-05-08T00:22:16.799Z,976.45
2017-05-08T00:23:19.164Z,976.47
2017-05-08T00:24:21.530Z,976.51
2017-05-08T00:25:24.439Z,976.51
2017-05-08T00:26:26.996Z,976.53
2017-05-08T00:27:29.562Z,976.56
2017-05-08T00:28:31.923Z,976.57
2017-05-08T00:29:34.282Z,976.62
2017-05-08T00:30:37.248Z,976.58
2017-05-08T00:31:39.609Z,976.63
2017-05-08T00:32:41.973Z,976.62
2017-05-08T00:33:44.334Z,976.64
2017-05-08T00:34:46.690Z,976.64
2017-05-08T00:35:49.600Z,976.65
2017-05-08T00:36:51.960Z,976.65
2017-05-08T00:37:54.320Z,976.64
2017-05-08T00:38:56.878Z,976.65
2017-05-08T00:39:59.242Z,976.69
2017-05-08T00:41:02.202Z,976.73
2017-05-08T00:42:04.561Z,976.69
2017-05-08T00:43:06.914Z,976.69
2017-05-08T00:44:09.259Z,976.70
2017-05-08T00:45:11.621Z,976.66
2017-05-08T00:46:14.533Z,976.67
2017-05-08T00:47:16.894Z,976.68
2017-05-08T00:48:19.244Z,976.69
2017-05-08T00:49:21.602Z,976.68
2017-05-08T00:50:23.959Z,976.73
2017-05-08T00:51:26.869Z,976.74
2017-05-08T00:52:29.225Z,976.71
2017-05-08T00:53:31.579Z,976.72
2017-05-08T00:54:33.937Z,976.75
2017-05-08T00:55:36.289Z,976.72
2017-05-08T00:56:39.217Z,976.75
2017-05-08T00:57:41.577Z,976.78
2017-05-08T00:58:43.937Z,976.76
2017-05-08T00:59:46.297Z,976.74
2017-05-08T01:00:48.655Z,976.76
2017-05-08T01:01:51.677Z,976.78
2017-05-08T01:02:54.024Z,976.76
2017-05-08T01:03:56.390Z,976.77
2017-05-08T01:04:58.770Z,976.77
2017-05-08T01:06:01.112Z,976.73
2017-05-08T01:07:04.123Z,976.74
2017-05-08T01:08:06.481Z,976.77
2017-05-08T01:09:08.859Z,976.77
2017-05-08T01:10:11.204Z,976.80
2017-05-08T01:11:13.566Z,976.76
2017-05-08T01:12:16.485Z,976.77
2017-05-08T01:13:18.844Z,976.78
2017-05-08T01:14:21.400Z,976.78
2017-05-08T01:15:23.760Z,976.78
2017-05-08T01:16:26.115Z,976.74
2017-05-08T01:17:29.075Z,976.76
2017-05-08T01:18:31.437Z,976.75
2017-05-08T01:19:33.988Z,976.77
2017-05-08T01:20:36.352Z,976.78
2017-05-08T01:21:38.709Z,976.79
2017-05-08T01:22:43.574Z,976.80
2017-05-08T01:23:45.933Z,976.83
2017-05-08T01:24:48.291Z,976.83
2017-05-08T01:25:50.639Z,976.83
2017-05-08T01:26:53.001Z,976.82
2017-05-08T01:27:55.907Z,976.86
2017-05-08T01:28:58.271Z,976.82
2017-05-08T01:30:00.629Z,976.85
2017-05-08T01:31:02.981Z,976.86
2017-05-08T01:32:05.338Z,976.88
2017-05-08T01:33:08.249Z,976.86
2017-05-08T01:34:10.608Z,976.90
2017-05-08T01:35:12.967Z,976.91
2017-05-08T01:36:15.327Z,976.91
2017-05-08T01:37:17.885Z,976.96
2017-05-08T01:38:20.947Z,976.95
2017-05-08T01:39:23.298Z,976.98
2017-05-08T01:40:25.657Z,976.97
2017-05-08T01:41:28.018Z,977.02
2017-05-08T01:42:30.375Z,977.00
2017-05-08T01:43:35.233Z,977.00
2017-05-08T01:44:37.601Z,976.99
2017-05-08T01:45:39.955Z,976.98
2017-05-08T01:46:42.314Z,977.02
2017-05-08T01:47:44.664Z,977.00
2017-05-08T01:48:47.576Z,977.07
2017-05-08T01:49:49.928Z,977.10
2017-05-08T01:50:52.278Z,977.09
2017-05-08T01:51:54.639Z,977.10
2017-05-08T01:52:56.994Z,977.13
2017-05-08T01:53:59.909Z,977.13
2017-05-08T01:55:02.474Z,977.15
2017-05-08T01:56:04.824Z,977.20
2017-05-08T01:57:07.187Z,977.17
2017-05-08T01:58:09.545Z,977.22
2017-05-08T01:59:12.606Z,977.21
2017-05-08T02:00:14.958Z,977.24
2017-05-08T02:01:17.318Z,977.22
2017-05-08T02:02:19.875Z,977.21
2017-05-08T02:03:22.238Z,977.23
2017-05-08T02:04:25.295Z,977.23
2017-05-08T02:05:27.655Z,977.23
2017-05-08T02:06:30.016Z,977.27
2017-05-08T02:07:32.368Z,977.27
2017-05-08T02:08:34.742Z,977.27
2017-05-08T02:09:37.793Z,977.26
2017-05-08T02:10:40.139Z,977.28
2017-05-08T02:11:42.496Z,977.29
2017-05-08T02:12:44.853Z,977.28
2017-05-08T02:13:47.215Z,977.25
2017-05-08T02:14:50.122Z,977.33
2017-05-08T02:15:52.485Z,977.33
2017-05-08T02:16:54.849Z,977.32
2017-05-08T02:17:57.203Z,977.35
2017-05-08T02:18:59.560Z,977.36
2017-05-08T02:20:02.476Z,977.35
2017-05-08T02:21:04.833Z,977.35
2017-05-08T02:22:08.610Z,977.40
2017-05-08T02:23:10.976Z,977.42
2017-05-08T02:24:13.333Z,977.40
2017-05-08T02:25:16.389Z,977.47
2017-05-08T02:26:18.757Z,977.47
2017-05-08T02:27:21.114Z,977.47
2017-05-08T02:28:23.470Z,977.47
2017-05-08T02:29:25.836Z,977.48
2017-05-08T02:30:30.710Z,977.48
2017-05-08T02:31:33.065Z,977.47
2017-05-08T02:32:35.421Z,977.46
2017-05-08T02:33:37.983Z,977.50
2017-05-08T02:34:40.369Z,977.49
2017-05-08T02:35:43.410Z,977.49
2017-05-08T02:36:45.764Z,977.45
2017-05-08T02:37:48.120Z,977.44
2017-05-08T02:38:50.481Z,977.47
2017-05-08T02:39:52.841Z,977.53
2017-05-08T02:40:55.899Z,977.49
2017-05-08T02:41:58.248Z,977.49
2017-05-08T02:43:00.607Z,977.51
2017-05-08T02:44:02.977Z,977.51
2017-05-08T02:45:05.326Z,977.50
2017-05-08T02:46:08.233Z,977.51
2017-05-08T02:47:10.594Z,977.55
2017-05-08T02:48:12.953Z,977.52
2017-05-08T02:49:15.312Z,977.51
2017-05-08T02:50:17.680Z,977.51
2017-05-08T02:51:21.787Z,977.52
2017-05-08T02:52:24.146Z,977.56
2017-05-08T02:53:26.505Z,977.55
2017-05-08T02:54:28.871Z,977.53
2017-05-08T02:55:31.231Z,977.54
2017-05-08T02:56:34.287Z,977.53
2017-05-08T02:57:36.635Z,977.52
2017-05-08T02:58:38.995Z,977.52
2017-05-08T02:59:41.365Z,977.53
2017-05-08T03:00:43.723Z,977.49
2017-05-08T03:01:46.775Z,977.52
2017-05-08T03:02:49.139Z,977.55
2017-05-08T03:03:51.507Z,977.57
2017-05-08T03:04:53.860Z,977.59
2017-05-08T03:05:56.217Z,977.60
2017-05-08T03:06:59.177Z,977.65
2017-05-08T03:08:01.531Z,977.66
2017-05-08T03:09:03.884Z,977.66
2017-05-08T03:10:06.439Z,977.71
2017-05-08T03:11:08.808Z,977.67
2017-05-08T03:12:11.772Z,977.70
2017-05-08T03:13:14.128Z,977.76
2017-05-08T03:14:16.682Z,977.71
2017-05-08T03:15:19.053Z,977.73
2017-05-08T03:16:21.416Z,977.74
2017-05-08T03:17:24.474Z,977.75
2017-05-08T03:18:26.829Z,977.75
2017-05-08T03:19:29.194Z,977.74
2017-05-08T03:20:31.557Z,977.80
2017-05-08T03:21:33.920Z,977.80
2017-05-08T03:22:38.786Z,977.82
2017-05-08T03:23:41.146Z,977.88
2017-05-08T03:24:43.502Z,977.84
2017-05-08T03:25:45.861Z,977.83
2017-05-08T03:26:48.216Z,977.84
2017-05-08T03:27:51.124Z,977.89
2017-05-08T03:28:53.481Z,977.86
2017-05-08T03:29:55.837Z,977.89
2017-05-08T03:30:58.401Z,977.91
2017-05-08T03:32:00.758Z,977.89
2017-05-08T03:33:03.718Z,977.94
2017-05-08T03:34:06.076Z,977.93
2017-05-08T03:35:08.429Z,977.97
2017-05-08T03:36:10.781Z,977.98
2017-05-08T03:37:13.137Z,977.98
2017-05-08T03:38:16.200Z,977.97
2017-05-08T03:39:18.561Z,977.97
2017-05-08T03:40:20.911Z,977.99
2017-05-08T03:41:23.271Z,978.00
2017-05-08T03:42:25.623Z,978.01
2017-05-08T03:43:28.577Z,978.01
2017-05-08T03:44:30.940Z,977.99
2017-05-08T03:45:33.293Z,978.01
2017-05-08T03:46:35.649Z,978.01
2017-05-08T03:47:38.003Z,978.01
2017-05-08T03:48:40.967Z,978.03
2017-05-08T03:49:43.322Z,978.01
2017-05-08T03:50:45.676Z,977.98
2017-05-08T03:51:48.038Z,977.97
2017-05-08T03:52:50.393Z,977.96
2017-05-08T03:53:53.451Z,977.95
2017-05-08T03:54:55.802Z,977.93
2017-05-08T03:55:58.159Z,977.95
2017-05-08T03:57:00.513Z,977.94
2017-05-08T03:58:02.866Z,977.96
2017-05-08T03:59:05.979Z,977.93
2017-05-08T04:00:08.338Z,977.96
2017-05-08T04:01:10.698Z,977.98
2017-05-08T04:02:13.065Z,978.01
2017-05-08T04:03:15.428Z,977.96
2017-05-08T04:04:18.391Z,978.00
2017-05-08T04:05:20.744Z,978.00
2017-05-08T04:06:23.104Z,977.97
2017-05-08T04:07:25.467Z,977.93
2017-05-08T04:08:27.837Z,977.94
2017-05-08T04:09:30.736Z,977.95
2017-05-08T04:10:33.101Z,977.96
2017-05-08T04:11:35.460Z,977.92
2017-05-08T04:12:37.819Z,977.92
2017-05-08T04:13:40.169Z,977.89
2017-05-08T04:14:43.126Z,977.89
2017-05-08T04:15:45.490Z,977.93
2017-05-08T04:16:47.844Z,977.91
2017-05-08T04:17:50.203Z,977.92
2017-05-08T04:18:52.565Z,977.90
2017-05-08T04:19:55.522Z,977.93
2017-05-08T04:20:57.878Z,977.94
2017-05-08T04:22:00.237Z,977.92
2017-05-08T04:23:02.605Z,977.92
2017-05-08T04:24:04.949Z,977.93
2017-05-08T04:25:08.005Z,977.92
2017-05-08T04:26:10.369Z,977.92
2017-05-08T04:27:12.729Z,977.93
2017-05-08T04:28:15.086Z,977.92
2017-05-08T04:29:17.633Z,977.94
2017-05-08T04:30:20.595Z,977.92
2017-05-08T04:31:22.954Z,977.91
2017-05-08T04:32:25.315Z,977.91
2017-05-08T04:33:27.880Z,977.91
2017-05-08T04:34:30.241Z,977.88
2017-05-08T04:35:33.296Z,977.90
2017-05-08T04:36:35.653Z,977.93
2017-05-08T04:37:38.212Z,977.91
2017-05-08T04:38:40.581Z,977.92
2017-05-08T04:39:42.934Z,977.92
2017-05-08T04:40:45.893Z,977.93
2017-05-08T04:41:48.247Z,977.94
2017-05-08T04:42:50.631Z,977.92
2017-05-08T04:43:52.984Z,977.94
2017-05-08T04:44:55.333Z,977.95
2017-05-08T04:45:58.301Z,977.88
2017-05-08T04:47:00.658Z,977.89
2017-05-08T04:48:03.204Z,977.91
2017-05-08T04:49:05.563Z,977.91
2017-05-08T04:50:08.130Z,977.89
2017-05-08T04:51:11.191Z,977.89
2017-05-08T04:52:13.554Z,977.90
2017-05-08T04:53:15.903Z,977.92
2017-05-08T04:54:18.262Z,977.90
2017-05-08T04:55:20.616Z,977.91
2017-05-08T04:56:25.472Z,977.86
2017-05-08T04:57:27.826Z,977.86
2017-05-08T04:58:30.184Z,977.86
2017-05-08T04:59:32.547Z,977.89
2017-05-08T05:00:34.903Z,977.87
2017-05-08T05:01:39.967Z,977.88
2017-05-08T05:02:42.332Z,977.85
2017-05-08T05:03:44.690Z,977.87
2017-05-08T05:04:47.048Z,977.87
2017-05-08T05:05:49.397Z,977.88
2017-05-08T05:06:52.467Z,977.86
2017-05-08T05:07:54.822Z,977.87
2017-05-08T05:08:57.175Z,977.86
2017-05-08T05:09:59.536Z,977.85
2017-05-08T05:11:01.897Z,977.88
2017-05-08T05:12:04.857Z,977.87
2017-05-08T05:13:07.205Z,977.82
2017-05-08T05:14:09.566Z,977.83
2017-05-08T05:15:11.917Z,977.85
2017-05-08T05:16:14.270Z,977.84
2017-05-08T05:17:17.242Z,977.85
2017-05-08T05:18:19.599Z,977.87
2017-05-08T05:19:21.953Z,977.87
2017-05-08T05:20:24.315Z,977.89
2017-05-08T05:21:26.674Z,977.85
2017-05-08T05:22:29.737Z,977.89
2017-05-08T05:23:32.097Z,977.88
2017-05-08T05:24:34.456Z,977.86
2017-05-08T05:25:37.026Z,977.89
2017-05-08T05:26:39.380Z,977.85
2017-05-08T05:27:42.342Z,977.87
2017-05-08T05:28:44.687Z,977.87
2017-05-08T05:29:47.045Z,977.87
2017-05-08T05:30:49.397Z,977.85
2017-05-08T05:31:51.747Z,977.82
2017-05-08T05:32:54.805Z,977.81
2017-05-08T05:33:57.166Z,977.83
2017-05-08T05:34:59.522Z,977.82
2017-05-08T05:36:01.881Z,977.80
2017-05-08T05:37:04.232Z,977.78
2017-05-08T05:38:07.201Z,977.79
2017-05-08T05:39:09.569Z,977.76
2017-05-08T05:40:11.912Z,977.72
2017-05-08T05:41:14.263Z,977.72
2017-05-08T05:42:16.637Z,977.75
2017-05-08T05:43:19.597Z,977.71
2017-05-08T05:44:21.946Z,977.71
2017-05-08T05:45:24.301Z,977.69
2017-05-08T05:46:26.659Z,977.69
2017-05-08T05:47:29.023Z,977.69
2017-05-08T05:48:32.082Z,977.66
2017-05-08T05:49:34.433Z,977.69
2017-05-08T05:50:36.789Z,977.63
2017-05-08T05:51:39.142Z,977.61
2017-05-08T05:52:41.504Z,977.59
2017-05-08T05:53:44.577Z,977.59
2017-05-08T05:54:46.936Z,977.62
2017-05-08T05:55:49.289Z,977.57
2017-05-08T05:56:51.854Z,977.56
2017-05-08T05:57:54.210Z,977.58
2017-05-08T05:58:57.164Z,977.57
2017-05-08T05:59:59.526Z,977.55
2017-05-08T06:01:01.880Z,977.53
2017-05-08T06:02:04.230Z,977.53
2017-05-08T06:03:06.587Z,977.50
2017-05-08T06:04:09.644Z,977.51
2017-05-08T06:05:12.014Z,977.53
2017-05-08T06:06:14.378Z,977.52
2017-05-08T06:07:16.731Z,977.55
2017-05-08T06:08:19.085Z,977.54
2017-05-08T06:09:22.044Z,977.53
2017-05-08T06:10:24.408Z,977.52
2017-05-08T06:11:26.767Z,977.55
2017-05-08T06:12:29.132Z,977.53
2017-05-08T06:13:31.487Z,977.55
2017-05-08T06:14:34.444Z,977.54
2017-05-08T06:15:36.797Z,977.55
2017-05-08T06:16:39.155Z,977.54
2017-05-08T06:17:41.514Z,977.53
2017-05-08T06:18:43.860Z,977.54
2017-05-08T06:19:46.818Z,977.52
2017-05-08T06:20:49.171Z,977.52
2017-05-08T06:21:51.526Z,977.52
2017-05-08T06:22:53.876Z,977.53
2017-05-08T06:23:56.237Z,977.46
2017-05-08T06:24:59.189Z,977.49
2017-05-08T06:26:01.548Z,977.48
2017-05-08T06:27:03.904Z,977.50
2017-05-08T06:28:06.258Z,977.49
2017-05-08T06:29:08.608Z,977.47
2017-05-08T06:30:11.577Z,977.45
2017-05-08T06:31:13.927Z,977.47
2017-05-08T06:32:16.284Z,977.43
2017-05-08T06:33:18.644Z,977.42
2017-05-08T06:34:20.996Z,977.42
2017-05-08T06:35:23.959Z,977.41
2017-05-08T06:36:26.317Z,977.40
2017-05-08T06:37:28.677Z,977.35
2017-05-08T06:38:31.038Z,977.35
2017-05-08T06:39:33.391Z,977.38
2017-05-08T06:40:36.357Z,977.34
2017-05-08T06:41:38.713Z,977.39
2017-05-08T06:42:41.073Z,977.36
2017-05-08T06:43:43.437Z,977.35
2017-05-08T06:44:45.801Z,977.31
2017-05-08T06:45:48.769Z,977.28
2017-05-08T06:46:51.129Z,977.29
2017-05-08T06:47:53.479Z,977.22
2017-05-08T06:48:55.842Z,977.23
2017-05-08T06:49:58.198Z,977.19
2017-05-08T06:51:01.155Z,977.18
2017-05-08T06:52:03.513Z,977.17
2017-05-08T06:53:05.868Z,977.19
2017-05-08T06:54:08.219Z,977.21
2017-05-08T06:55:10.583Z,977.20
2017-05-08T06:56:13.640Z,977.22
2017-05-08T06:57:15.994Z,977.21
2017-05-08T06:58:18.350Z,977.18
2017-05-08T06:59:20.710Z,977.15
2017-05-08T07:00:23.079Z,977.17
2017-05-08T07:01:26.038Z,977.15
2017-05-08T07:02:28.389Z,977.12
2017-05-08T07:03:30.756Z,977.10
2017-05-08T07:04:33.110Z,977.11
2017-05-08T07:05:35.473Z,977.07
2017-05-08T07:06:38.377Z,977.04
2017-05-08T07:07:40.731Z,977.04
2017-05-08T07:08:43.090Z,977.04
2017-05-08T07:09:45.451Z,977.05
2017-05-08T07:10:47.812Z,977.02
2017-05-08T07:11:50.873Z,977.01
2017-05-08T07:12:53.232Z,976.96
2017-05-08T07:13:55.586Z,976.94
2017-05-08T07:14:57.940Z,976.90
2017-05-08T07:16:00.292Z,976.87
2017-05-08T07:17:05.150Z,976.84
2017-05-08T07:18:07.515Z,976.85
2017-05-08T07:19:09.870Z,976.83
2017-05-08T07:20:12.228Z,976.84
2017-05-08T07:21:14.592Z,976.81
2017-05-08T07:22:17.649Z,976.80
2017-05-08T07:23:20.007Z,976.80
2017-05-08T07:24:22.360Z,976.81
2017-05-08T07:25:24.725Z,976.79
2017-05-08T07:26:27.082Z,976.76
2017-05-08T07:27:30.145Z,976.77
2017-05-08T07:28:32.499Z,976.72
2017-05-08T07:29:34.855Z,976.71
2017-05-08T07:30:37.227Z,976.67
2017-05-08T07:32:22.774Z,976.66
2017-05-08T07:33:25.751Z,976.67
2017-05-08T07:34:28.095Z,976.67
2017-05-08T07:35:30.448Z,976.67
2017-05-08T07:36:32.805Z,976.65
2017-05-08T07:37:35.161Z,976.64
2017-05-08T07:38:38.071Z,976.61
2017-05-08T07:39:40.433Z,976.66
2017-05-08T07:40:42.796Z,976.65
2017-05-08T07:41:45.153Z,976.61
2017-05-08T07:42:47.514Z,976.60
2017-05-08T07:43:50.476Z,976.60
2017-05-08T07:44:52.836Z,976.61
2017-05-08T07:45:55.193Z,976.59
2017-05-08T07:46:57.558Z,976.57
2017-05-08T07:47:59.911Z,976.52
2017-05-08T07:49:02.973Z,976.50
2017-05-08T07:50:05.338Z,976.50
2017-05-08T07:51:07.704Z,976.47
2017-05-08T07:52:10.065Z,976.50
2017-05-08T07:53:12.423Z,976.46
2017-05-08T07:54:15.381Z,976.46
2017-05-08T07:55:17.745Z,976.50
2017-05-08T07:56:20.108Z,976.45
2017-05-08T07:57:22.462Z,976.49
2017-05-08T07:58:24.812Z,976.48
2017-05-08T07:59:27.770Z,976.45
2017-05-08T08:00:30.126Z,976.44
2017-05-08T08:01:32.485Z,976.47
2017-05-08T08:02:34.853Z,976.44
2017-05-08T08:03:37.208Z,976.41
2017-05-08T08:04:40.271Z,976.42
2017-05-08T08:05:42.626Z,976.39
2017-05-08T08:06:44.989Z,976.37
2017-05-08T08:07:47.343Z,976.34
2017-05-08T08:08:49.703Z,976.35
2017-05-08T08:09:52.667Z,976.39
2017-05-08T08:10:55.021Z,976.37
2017-05-08T08:11:57.377Z,976.34
2017-05-08T08:12:59.741Z,976.36
2017-05-08T08:14:02.104Z,976.34
2017-05-08T08:15:05.061Z,976.40
2017-05-08T08:16:07.432Z,976.39
2017-05-08T08:17:09.790Z,976.41
2017-05-08T08:18:12.149Z,976.41
2017-05-08T08:19:14.505Z,976.38
2017-05-08T08:20:17.575Z,976.38
2017-05-08T08:21:19.929Z,976.33
2017-05-08T08:22:22.283Z,976.33
2017-05-08T08:23:24.641Z,976.33
2017-05-08T08:24:26.997Z,976.28
2017-05-08T08:25:29.961Z,976.31
2017-05-08T08:26:32.307Z,976.31
2017-05-08T08:27:34.668Z,976.27
2017-05-08T08:28:37.027Z,976.32
2017-05-08T08:29:39.388Z,976.35
2017-05-08T08:30:42.449Z,976.31
2017-05-08T08:31:44.805Z,976.31
2017-05-08T08:32:47.161Z,976.31
2017-05-08T08:33:49.512Z,976.28
2017-05-08T08:34:51.869Z,976.27
2017-05-08T08:35:54.915Z,976.23
2017-05-08T08:36:57.276Z,976.24
2017-05-08T08:37:59.635Z,976.22
2017-05-08T08:39:01.988Z,976.17
2017-05-08T08:40:04.364Z,976.20
2017-05-08T08:41:07.427Z,976.17
2017-05-08T08:42:09.781Z,976.20
2017-05-08T08:43:12.139Z,976.18
2017-05-08T08:44:14.493Z,976.17
2017-05-08T08:45:16.853Z,976.13
2017-05-08T08:46:19.815Z,976.12
2017-05-08T08:47:22.173Z,976.10
2017-05-08T08:48:24.536Z,976.12
2017-05-08T08:49:26.885Z,976.10
2017-05-08T08:50:29.254Z,976.09
2017-05-08T08:51:32.162Z,976.12
2017-05-08T08:52:34.514Z,976.11
2017-05-08T08:53:36.863Z,976.08
2017-05-08T08:54:39.220Z,976.11
2017-05-08T08:55:41.579Z,976.10
2017-05-08T08:56:44.647Z,976.09
2017-05-08T08:57:46.993Z,976.08
2017-05-08T08:58:49.346Z,976.10
2017-05-08T08:59:51.714Z,976.07
2017-05-08T09:00:54.060Z,976.07
2017-05-08T09:01:57.021Z,976.07
2017-05-08T09:02:59.382Z,976.10
2017-05-08T09:04:01.738Z,976.08
2017-05-08T09:05:04.094Z,976.10
2017-05-08T09:06:06.459Z,976.09
2017-05-08T09:07:09.421Z,976.11
2017-05-08T09:08:11.777Z,976.10
2017-05-08T09:09:14.141Z,976.11
2017-05-08T09:10:16.504Z,976.13
2017-05-08T09:11:18.858Z,976.13
2017-05-08T09:12:21.921Z,976.11
2017-05-08T09:13:24.278Z,976.13
2017-05-08T09:14:26.633Z,976.14
2017-05-08T09:15:28.990Z,976.13
2017-05-08T09:16:31.351Z,976.17
2017-05-08T09:17:34.411Z,976.17
2017-05-08T09:18:36.769Z,976.16
2017-05-08T09:19:39.125Z,976.15
2017-05-08T09:20:41.481Z,976.14
2017-05-08T09:21:43.845Z,976.13
2017-05-08T09:22:46.805Z,976.13
2017-05-08T09:23:49.160Z,976.15
2017-05-08T09:24:51.525Z,976.10
2017-05-08T09:25:53.889Z,976.06
2017-05-08T09:26:56.256Z,976.04
2017-05-08T09:27:59.211Z,976.04
2017-05-08T09:29:01.563Z,976.05
2017-05-08T09:30:03.920Z,975.99
2017-05-08T09:31:06.269Z,975.99
2017-05-08T09:32:08.635Z,975.95
2017-05-08T09:33:11.589Z,975.97
2017-05-08T09:34:13.942Z,975.93
2017-05-08T09:35:16.297Z,975.95
2017-05-08T09:36:18.661Z,975.92
2017-05-08T09:37:21.021Z,975.93
2017-05-08T09:38:23.928Z,975.91
2017-05-08T09:39:26.293Z,975.90
2017-05-08T09:40:28.658Z,975.89
2017-05-08T09:41:31.014Z,975.89
2017-05-08T09:42:33.370Z,975.86
2017-05-08T09:43:36.325Z,975.86
2017-05-08T09:44:38.687Z,975.84
2017-05-08T09:45:41.062Z,975.86
2017-05-08T09:46:43.415Z,975.82
2017-05-08T09:47:45.768Z,975.82
2017-05-08T09:48:48.734Z,975.81
2017-05-08T09:49:51.090Z,975.79
2017-05-08T09:50:53.445Z,975.80
2017-05-08T09:51:55.804Z,975.78
2017-05-08T09:52:58.155Z,975.80
2017-05-08T09:54:01.118Z,975.82
2017-05-08T09:55:03.473Z,975.84
2017-05-08T09:56:05.839Z,975.79
2017-05-08T09:57:08.192Z,975.81
2017-05-08T09:58:10.549Z,975.81
2017-05-08T09:59:13.505Z,975.78
2017-05-08T10:00:15.866Z,975.77
2017-05-08T10:01:18.215Z,975.75
2017-05-08T10:02:20.575Z,975.79
2017-05-08T10:03:22.932Z,975.80
2017-05-08T10:04:25.996Z,975.78
2017-05-08T10:05:28.356Z,975.78
2017-05-08T10:06:30.717Z,975.76
2017-05-08T10:07:33.087Z,975.77
2017-05-08T10:08:35.449Z,975.75
2017-05-08T10:09:38.508Z,975.76
2017-05-08T10:10:40.860Z,975.75
2017-05-08T10:11:43.222Z,975.76
2017-05-08T10:12:45.587Z,975.81
2017-05-08T10:13:47.949Z,975.76
2017-05-08T10:14:51.013Z,975.82
2017-05-08T10:15:53.386Z,975.81
2017-05-08T10:16:55.747Z,975.81
2017-05-08T10:17:58.107Z,975.82
2017-05-08T10:19:00.624Z,975.80
2017-05-08T10:20:04.021Z,975.83
2017-05-08T10:21:06.503Z,975.77
2017-05-08T10:22:09.115Z,975.79
2017-05-08T10:23:11.624Z,975.76
2017-05-08T10:24:14.157Z,975.80
2017-05-08T10:25:17.989Z,975.80
2017-05-08T10:26:20.921Z,975.78
2017-05-08T10:27:23.111Z,975.78
2017-05-08T10:28:25.446Z,975.81
2017-05-08T10:29:27.881Z,975.79
2017-05-08T10:30:31.452Z,975.80
2017-05-08T10:31:33.704Z,975.81
2017-05-08T10:32:36.182Z,975.80
2017-05-08T10:33:38.676Z,975.81
2017-05-08T10:34:41.065Z,975.85
2017-05-08T10:35:44.656Z,975.80
2017-05-08T10:36:46.944Z,975.85
2017-05-08T10:37:49.378Z,975.83
2017-05-08T10:38:51.724Z,975.86
2017-05-08T10:39:54.295Z,975.85
2017-05-08T10:40:57.587Z,975.83
2017-05-08T10:42:00.087Z,975.88
2017-05-08T10:43:02.621Z,975.90
2017-05-08T10:44:05.123Z,975.90
2017-05-08T10:45:07.656Z,975.91
2017-05-08T10:46:10.796Z,975.92
2017-05-08T10:47:13.434Z,975.92
2017-05-08T10:48:15.772Z,975.91
2017-05-08T10:49:18.112Z,975.95
2017-05-08T10:50:20.455Z,975.94
2017-05-08T10:51:23.948Z,975.95
2017-05-08T10:52:26.334Z,975.95
2017-05-08T10:53:28.663Z,975.95
2017-05-08T10:54:31.644Z,975.95
2017-05-08T10:55:33.779Z,975.92
2017-05-08T10:56:37.036Z,975.95
2017-05-08T10:57:39.347Z,975.95
2017-05-08T10:58:41.738Z,975.97
2017-05-08T10:59:44.125Z,975.97
2017-05-08T11:00:46.615Z,976.00
2017-05-08T11:01:49.891Z,976.04
2017-05-08T11:02:52.403Z,976.04
2017-05-08T11:03:54.747Z,976.04
2017-05-08T11:04:57.101Z,976.06
2017-05-08T11:05:59.463Z,976.10
2017-05-08T11:07:02.425Z,976.10
2017-05-08T11:08:04.796Z,976.07
2017-05-08T11:09:07.149Z,976.09
2017-05-08T11:10:09.505Z,976.14
2017-05-08T11:11:11.862Z,976.17
2017-05-08T11:12:14.926Z,976.21
2017-05-08T11:13:17.282Z,976.18
2017-05-08T11:14:19.641Z,976.19
2017-05-08T11:15:21.995Z,976.22
2017-05-08T11:16:24.354Z,976.23
2017-05-08T11:17:27.313Z,976.22
2017-05-08T11:18:29.665Z,976.18
2017-05-08T11:19:32.023Z,976.19
2017-05-08T11:20:34.375Z,976.17
2017-05-08T11:21:36.737Z,976.14
2017-05-08T11:22:39.692Z,976.14
2017-05-08T11:23:42.051Z,976.15
2017-05-08T11:24:44.404Z,976.17
2017-05-08T11:25:46.769Z,976.12
2017-05-08T11:26:49.135Z,976.13
2017-05-08T11:27:52.080Z,976.13
2017-05-08T11:28:54.445Z,976.14
2017-05-08T11:29:56.805Z,976.12
2017-05-08T11:30:59.160Z,976.17
2017-05-08T11:32:01.521Z,976.17
2017-05-08T11:33:04.582Z,976.21
2017-05-08T11:34:06.942Z,976.17
2017-05-08T11:35:09.301Z,976.21
2017-05-08T11:36:11.652Z,976.23
2017-05-08T11:37:14.212Z,976.23
2017-05-08T11:38:17.133Z,976.21
2017-05-08T11:39:19.475Z,976.21
2017-05-08T11:40:21.850Z,976.25
2017-05-08T11:41:24.215Z,976.24
2017-05-08T11:42:26.571Z,976.27
2017-05-08T11:43:29.540Z,976.27
2017-05-08T11:44:31.898Z,976.25
2017-05-08T11:45:34.252Z,976.22
2017-05-08T11:46:36.643Z,976.21
2017-05-08T11:47:38.970Z,976.24
2017-05-08T11:48:41.932Z,976.26
2017-05-08T11:49:44.302Z,976.23
2017-05-08T11:50:46.647Z,976.32
2017-05-08T11:51:49.010Z,976.31
2017-05-08T11:52:51.372Z,976.34
2017-05-08T11:53:54.337Z,976.30
2017-05-08T11:54:56.699Z,976.34
2017-05-08T11:55:59.060Z,976.37
2017-05-08T11:57:01.416Z,976.42
2017-05-08T11:58:03.773Z,976.39
2017-05-08T11:59:06.842Z,976.43
2017-05-08T12:00:09.196Z,976.42
2017-05-08T12:01:11.559Z,976.46
2017-05-08T12:02:13.921Z,976.41
2017-05-08T12:03:16.273Z,976.49
2017-05-08T12:04:19.340Z,976.51
2017-05-08T12:05:21.704Z,976.47
2017-05-08T12:06:24.063Z,976.54
2017-05-08T12:07:26.422Z,976.54
2017-05-08T12:08:28.792Z,976.56
2017-05-08T12:09:31.749Z,976.58
2017-05-08T12:10:34.109Z,976.57
2017-05-08T12:11:36.468Z,976.60
2017-05-08T12:12:38.832Z,976.72
2017-05-08T12:13:41.186Z,976.68
2017-05-08T12:14:44.098Z,976.67
2017-05-08T12:15:46.455Z,976.67
2017-05-08T12:16:48.820Z,976.68
2017-05-08T12:17:51.183Z,976.67
2017-05-08T12:18:53.544Z,976.72
2017-05-08T12:19:56.507Z,976.75
2017-05-08T12:20:58.866Z,976.71
2017-05-08T12:22:01.225Z,976.73
2017-05-08T12:23:03.584Z,976.68
2017-05-08T12:24:05.948Z,976.71
2017-05-08T12:25:08.911Z,976.75
2017-05-08T12:26:11.273Z,976.75
2017-05-08T12:27:13.634Z,976.72
2017-05-08T12:28:15.992Z,976.75
2017-05-08T12:29:18.353Z,976.76
2017-05-08T12:30:21.326Z,976.77
2017-05-08T12:31:23.693Z,976.74
2017-05-08T12:32:26.052Z,976.77
2017-05-08T12:33:28.414Z,976.77
2017-05-08T12:34:30.782Z,976.82
2017-05-08T12:35:33.842Z,976.87
2017-05-08T12:36:36.216Z,976.85
2017-05-08T12:37:38.584Z,976.89
2017-05-08T12:38:40.939Z,976.97
2017-05-08T12:39:43.303Z,976.88
2017-05-08T12:40:46.279Z,977.00
2017-05-08T12:41:48.645Z,976.97
2017-05-08T12:42:51.002Z,977.03
2017-05-08T12:43:53.365Z,977.10
2017-05-08T12:44:55.723Z,977.18
2017-05-08T12:45:58.689Z,977.22
2017-05-08T12:47:01.049Z,977.28
2017-05-08T12:48:03.412Z,977.24
2017-05-08T12:49:05.770Z,977.20
2017-05-08T12:50:08.134Z,977.17
2017-05-08T12:51:11.149Z,977.30
2017-05-08T12:52:13.511Z,977.19
2017-05-08T12:53:15.876Z,977.21
2017-05-08T12:54:18.243Z,977.18
2017-05-08T12:55:20.601Z,977.22
2017-05-08T12:56:23.571Z,977.30
2017-05-08T12:57:25.941Z,977.23
2017-05-08T12:58:28.308Z,977.21
2017-05-08T12:59:30.671Z,977.30
2017-05-08T13:00:33.026Z,977.33